Time;durP1;ratioP1;P1;durP2;ratioP2;P2;SDS_P1;SDS_P2;PMS_P1;PMS_P2;Temp;Humidity;BMP_temperature;BMP_pressure;BME280_temperature;BME280_humidity;BME280_pressure;Samples;Min_cycle;Max_cycle;Signal;HPM_P1;HPM_P2
2023/06/18 00:01:11;;;;;;;0.70;0.70;;;;;;;19.93;100.00;99644.06;5070868;28;20203;-74
2023/06/18 00:03:37;;;;;;;0.70;0.70;;;;;;;20.06;100.00;99665.59;5071231;28;20197;-74
2023/06/18 00:06:06;;;;;;;0.80;0.80;;;;;;;20.20;100.00;99674.78;5071371;28;20214;-74
2023/06/18 00:08:32;;;;;;;0.80;0.80;;;;;;;20.28;100.00;99678.09;5070843;28;20206;-73
2023/06/18 00:10:59;;;;;;;0.70;0.70;;;;;;;20.20;100.00;99673.94;5070848;28;20207;-74
2023/06/18 00:13:26;;;;;;;1.02;1.02;;;;;;;20.25;100.00;99678.16;5071018;28;20206;-73
2023/06/18 00:15:53;;;;;;;0.93;0.80;;;;;;;20.24;100.00;99676.44;5070466;28;20218;-72
2023/06/18 00:18:20;;;;;;;0.70;0.70;;;;;;;20.38;100.00;99685.69;5070595;28;20199;-73
2023/06/18 00:20:48;;;;;;;0.60;0.60;;;;;;;20.35;100.00;99688.44;5069457;28;20202;-72
2023/06/18 00:23:16;;;;;;;0.70;0.70;;;;;;;20.44;100.00;99690.78;5070615;28;20203;-72
2023/06/18 00:25:43;;;;;;;0.70;0.70;;;;;;;20.22;100.00;99666.88;5051971;28;20207;-72
2023/06/18 00:28:11;;;;;;;0.70;0.70;;;;;;;20.05;100.00;99680.50;5071185;28;20199;-73
2023/06/18 00:30:38;;;;;;;0.57;0.57;;;;;;;20.14;100.00;99687.28;5070577;28;20647;-72
2023/06/18 00:33:06;;;;;;;0.70;0.70;;;;;;;20.21;100.00;99691.47;5071334;28;20202;-72
2023/06/18 00:35:32;;;;;;;0.70;0.70;;;;;;;20.23;100.00;99694.91;5070858;28;20214;-73
2023/06/18 00:38:02;;;;;;;0.60;0.60;;;;;;;20.04;100.00;99678.81;5071745;28;20207;-73
2023/06/18 00:40:31;;;;;;;0.70;0.70;;;;;;;20.07;100.00;99656.78;5068872;28;20205;-73
2023/06/18 00:42:57;;;;;;;0.75;0.75;;;;;;;20.01;100.00;99665.72;5071355;28;20194;-74
2023/06/18 00:45:24;;;;;;;0.70;0.70;;;;;;;20.03;100.00;99674.44;5070751;28;20194;-74
2023/06/18 00:47:51;;;;;;;0.70;0.70;;;;;;;19.95;100.00;99668.53;5071605;28;20268;-73
2023/06/18 00:50:19;;;;;;;0.85;0.85;;;;;;;19.94;100.00;99672.06;5070785;28;20191;-73
2023/06/18 00:52:47;;;;;;;1.25;1.15;;;;;;;19.99;100.00;99674.56;5071358;28;20206;-73
2023/06/18 00:55:16;;;;;;;0.70;0.70;;;;;;;20.11;100.00;99675.09;5070720;28;20254;-73
2023/06/18 00:57:49;;;;;;;0.70;0.70;;;;;;;20.18;100.00;99675.75;5071098;28;20238;-73
2023/06/18 01:00:19;;;;;;;0.60;0.60;;;;;;;20.15;100.00;99670.59;5070706;28;20198;-74
2023/06/18 01:02:49;;;;;;;0.82;0.82;;;;;;;19.77;100.00;99653.28;5070871;28;20199;-73
2023/06/18 01:05:16;;;;;;;0.80;0.80;;;;;;;19.84;100.00;99636.41;5071033;28;20685;-73
2023/06/18 01:07:47;;;;;;;0.80;0.80;;;;;;;20.06;100.00;99666.47;5070849;28;20268;-73
2023/06/18 01:10:14;;;;;;;0.70;0.70;;;;;;;19.82;100.00;99672.44;5070551;28;20202;-73
2023/06/18 01:12:48;;;;;;;0.68;0.68;;;;;;;19.78;100.00;99647.13;5035638;28;20682;-74
2023/06/18 01:15:16;;;;;;;0.60;0.60;;;;;;;19.84;100.00;99668.00;5071117;28;20221;-73
2023/06/18 01:17:47;;;;;;;0.70;0.70;;;;;;;19.75;100.00;99670.91;5070546;28;20218;-74
2023/06/18 01:20:17;;;;;;;0.70;0.70;;;;;;;19.79;100.00;99656.75;5070164;28;20195;-73
2023/06/18 01:22:49;;;;;;;0.70;0.70;;;;;;;19.92;100.00;99642.31;5070800;28;20596;-73
2023/06/18 01:25:18;;;;;;;0.60;0.60;;;;;;;20.08;100.00;99669.88;5070181;28;20199;-74
2023/06/18 01:27:47;;;;;;;1.50;1.40;;;;;;;20.00;100.00;99666.66;5070462;28;20673;-73
2023/06/18 01:30:16;;;;;;;0.88;0.88;;;;;;;19.97;100.00;99677.28;5071052;28;20262;-73
2023/06/18 01:32:43;;;;;;;0.70;0.70;;;;;;;19.77;100.00;99671.72;5072029;28;20203;-73
2023/06/18 01:35:15;;;;;;;0.70;0.70;;;;;;;20.15;100.00;99679.34;5074808;28;20732;-73
2023/06/18 01:37:54;;;;;;;0.70;0.70;;;;;;;20.35;100.00;99673.50;5074557;28;20198;-73
2023/06/18 01:40:31;;;;;;;0.70;0.70;;;;;;;20.07;100.00;99667.31;5074771;28;20205;-73
2023/06/18 01:43:07;;;;;;;0.63;0.63;;;;;;;20.21;100.00;99676.53;5039315;28;20207;-73
2023/06/18 01:45:42;;;;;;;0.73;0.73;;;;;;;20.18;100.00;99673.13;5074617;28;20206;-73
2023/06/18 01:48:10;;;;;;;0.70;0.70;;;;;;;20.04;100.00;99672.69;5074365;28;20209;-73
2023/06/18 01:50:39;;;;;;;0.70;0.70;;;;;;;20.05;100.00;99672.63;5073971;28;20666;-73
2023/06/18 01:53:07;;;;;;;0.70;0.70;;;;;;;20.00;100.00;99685.06;5074391;28;20256;-73
2023/06/18 01:55:37;;;;;;;0.60;0.60;;;;;;;19.78;100.00;99676.06;5039443;28;20716;-73
2023/06/18 01:58:04;;;;;;;0.70;0.70;;;;;;;19.61;100.00;99683.59;5074102;28;20207;-73
2023/06/18 02:00:31;;;;;;;1.33;1.33;;;;;;;19.75;100.00;99679.66;5038435;28;20274;-73
2023/06/18 02:02:59;;;;;;;0.60;0.60;;;;;;;19.94;100.00;99687.88;5073940;28;20203;-73
2023/06/18 02:05:26;;;;;;;0.70;0.70;;;;;;;19.96;100.00;99691.34;5073864;28;20260;-73
2023/06/18 02:07:53;;;;;;;0.70;0.70;;;;;;;19.99;100.00;99696.50;5073659;28;20187;-73
2023/06/18 02:10:20;;;;;;;0.80;0.80;;;;;;;19.84;100.00;99688.19;5055348;28;20199;-74
2023/06/18 02:12:48;;;;;;;0.60;0.60;;;;;;;19.78;100.00;99692.72;5038965;28;20264;-73
2023/06/18 02:15:15;;;;;;;0.80;0.80;;;;;;;19.66;100.00;99682.53;5073496;28;20237;-73
2023/06/18 02:17:42;;;;;;;0.70;0.70;;;;;;;19.31;100.00;99612.50;5073719;28;20203;-73
2023/06/18 02:20:11;;;;;;;0.80;0.80;;;;;;;19.76;100.00;99677.91;5044334;28;20202;-74
2023/06/18 02:22:38;;;;;;;0.82;0.82;;;;;;;19.71;100.00;99679.78;5073860;28;20221;-74
2023/06/18 02:25:05;;;;;;;0.80;0.80;;;;;;;19.72;100.00;99677.13;5073720;28;20195;-74
2023/06/18 02:27:32;;;;;;;0.70;0.70;;;;;;;19.73;100.00;99683.22;5073368;28;20654;-74
2023/06/18 02:30:01;;;;;;;0.70;0.70;;;;;;;19.65;100.00;99682.59;5073214;28;20271;-73
2023/06/18 02:32:31;;;;;;;0.70;0.70;;;;;;;19.33;100.00;99679.03;5073254;28;20205;-73
2023/06/18 02:34:58;;;;;;;0.70;0.70;;;;;;;19.23;100.00;99669.66;5055115;28;20194;-74
2023/06/18 02:37:27;;;;;;;0.60;0.60;;;;;;;19.49;100.00;99697.06;5038422;28;20198;-73
2023/06/18 02:39:54;;;;;;;0.70;0.70;;;;;;;19.51;100.00;99696.09;5072953;28;20679;-73
2023/06/18 02:42:22;;;;;;;0.70;0.70;;;;;;;19.60;100.00;99697.63;5073498;28;20290;-73
2023/06/18 02:44:48;;;;;;;0.90;0.90;;;;;;;19.79;100.00;99696.22;5072410;28;20572;-73
2023/06/18 02:47:15;;;;;;;0.85;0.85;;;;;;;19.81;100.00;99694.41;5053384;28;20560;-75
2023/06/18 02:49:42;;;;;;;0.70;0.70;;;;;;;19.86;100.00;99694.28;5071466;28;20252;-72
2023/06/18 02:52:09;;;;;;;0.73;0.73;;;;;;;19.84;100.00;99685.53;5072609;28;20611;-75
2023/06/18 02:54:37;;;;;;;0.98;0.98;;;;;;;20.13;100.00;99707.47;5037619;28;20220;-73
2023/06/18 02:57:04;;;;;;;0.80;0.80;;;;;;;20.26;100.00;99710.63;5072477;28;20218;-73
2023/06/18 02:59:31;;;;;;;0.70;0.70;;;;;;;20.36;100.00;99721.75;5072407;28;20285;-73
2023/06/18 03:01:58;;;;;;;0.60;0.60;;;;;;;20.19;100.00;99698.56;5072917;28;20576;-73
2023/06/18 03:04:25;;;;;;;0.70;0.70;;;;;;;19.72;100.00;99663.97;5072858;28;20199;-73
2023/06/18 03:06:51;;;;;;;0.70;0.70;;;;;;;20.14;100.00;99716.25;5072500;28;20210;-73
2023/06/18 03:09:18;;;;;;;0.77;0.77;;;;;;;20.46;100.00;99745.13;5072790;28;20199;-73
2023/06/18 03:11:46;;;;;;;0.70;0.70;;;;;;;20.76;100.00;99745.97;5072627;28;20191;-73
2023/06/18 03:14:13;;;;;;;0.70;0.70;;;;;;;20.76;100.00;99727.53;5072040;28;20260;-73
2023/06/18 03:16:40;;;;;;;0.70;0.70;;;;;;;20.85;100.00;99727.22;5037322;28;20226;-73
2023/06/18 03:19:06;;;;;;;0.70;0.70;;;;;;;21.07;100.00;99751.09;5071750;28;20589;-73
2023/06/18 03:21:34;;;;;;;0.70;0.70;;;;;;;21.25;100.00;99750.53;5072019;28;21011;-73
2023/06/18 03:24:01;;;;;;;0.70;0.70;;;;;;;21.36;100.00;99753.66;5072524;28;20277;-76
2023/06/18 03:26:29;;;;;;;1.00;1.00;;;;;;;21.31;100.00;99749.44;5072012;28;20274;-73
2023/06/18 03:28:58;;;;;;;0.50;0.50;;;;;;;21.63;100.00;99714.88;5051684;28;20443;-74
2023/06/18 03:31:26;;;;;;;0.70;0.70;;;;;;;21.71;100.00;99755.94;5059795;28;20215;-74
2023/06/18 03:33:53;;;;;;;0.70;0.70;;;;;;;21.54;100.00;99745.13;5072355;28;20203;-74
2023/06/18 03:36:20;;;;;;;0.70;0.70;;;;;;;21.43;100.00;99747.25;5072554;28;20234;-74
2023/06/18 03:38:46;;;;;;;0.70;0.70;;;;;;;21.35;100.00;99745.78;5072292;28;20203;-74
2023/06/18 03:41:14;;;;;;;0.60;0.60;;;;;;;21.52;100.00;99746.06;5072351;28;20227;-74
2023/06/18 03:43:41;;;;;;;0.70;0.70;;;;;;;21.37;100.00;99736.06;5072222;28;20203;-74
2023/06/18 03:46:09;;;;;;;0.60;0.60;;;;;;;21.47;100.00;99748.03;5071983;28;20210;-74
2023/06/18 03:48:37;;;;;;;0.68;0.68;;;;;;;21.15;100.00;99741.19;5072201;28;20202;-74
2023/06/18 03:51:04;;;;;;;0.80;0.80;;;;;;;21.33;100.00;99745.00;5072081;28;20286;-74
2023/06/18 03:53:36;;;;;;;1.85;1.33;;;;;;;21.38;100.00;99749.19;5072274;28;20681;-74
2023/06/18 03:56:04;;;;;;;0.70;0.70;;;;;;;21.47;100.00;99758.56;5070951;28;20222;-74
2023/06/18 03:58:30;;;;;;;0.63;0.63;;;;;;;21.81;100.00;99763.50;5071532;28;20203;-74
2023/06/18 04:00:57;;;;;;;0.70;0.70;;;;;;;21.74;100.00;99766.38;5071689;28;20199;-74
2023/06/18 04:03:25;;;;;;;0.80;0.80;;;;;;;21.74;100.00;99768.16;5071779;28;20241;-74
2023/06/18 04:05:52;;;;;;;0.70;0.70;;;;;;;21.67;100.00;99766.66;5071139;28;20199;-72
2023/06/18 04:08:19;;;;;;;0.70;0.70;;;;;;;21.56;100.00;99763.50;5071671;28;20206;-72
2023/06/18 04:10:47;;;;;;;0.70;0.70;;;;;;;21.74;100.00;99769.00;5071492;28;20727;-72
2023/06/18 04:13:14;;;;;;;0.90;0.90;;;;;;;21.51;100.00;99732.00;5071378;28;20688;-74
2023/06/18 04:15:41;;;;;;;0.75;0.75;;;;;;;21.65;100.00;99768.50;5071632;28;20218;-73
2023/06/18 04:18:08;;;;;;;0.90;0.90;;;;;;;21.63;100.00;99759.75;5070330;28;20654;-73
2023/06/18 04:20:39;;;;;;;0.70;0.70;;;;;;;21.76;100.00;99769.81;5071389;28;20565;-74
2023/06/18 04:23:06;;;;;;;0.70;0.70;;;;;;;21.73;100.00;99774.34;5070952;28;20646;-73
2023/06/18 04:25:33;;;;;;;0.50;0.50;;;;;;;21.67;100.00;99779.84;5071432;28;20227;-73
2023/06/18 04:28:00;;;;;;;0.65;0.65;;;;;;;21.61;100.00;99778.28;5071030;28;20287;-74
2023/06/18 04:30:27;;;;;;;0.70;0.70;;;;;;;21.85;100.00;99787.13;5070850;28;20262;-74
2023/06/18 04:32:53;;;;;;;0.60;0.60;;;;;;;22.09;100.00;99786.25;5071286;28;20674;-73
2023/06/18 04:35:20;;;;;;;0.70;0.70;;;;;;;22.31;100.00;99782.81;5071255;28;20236;-74
2023/06/18 04:37:49;;;;;;;0.80;0.80;;;;;;;22.43;100.00;99801.72;5065095;28;20233;-73
2023/06/18 04:40:15;;;;;;;6.50;0.98;;;;;;;22.12;100.00;99780.84;5066786;28;20206;-73
2023/06/18 04:42:42;;;;;;;1.00;1.00;;;;;;;22.32;100.00;99797.75;5068605;28;20281;-75
2023/06/18 04:45:10;;;;;;;0.60;0.60;;;;;;;22.59;100.00;99801.97;5070994;28;20199;-82
2023/06/18 04:47:37;;;;;;;0.60;0.60;;;;;;;22.51;100.00;99732.72;5072409;28;20206;-77
2023/06/18 04:50:06;;;;;;;0.70;0.70;;;;;;;22.56;100.00;99802.09;5070784;28;20206;-76
2023/06/18 04:52:33;;;;;;;0.70;0.70;;;;;;;22.62;100.00;99826.50;5070752;28;20202;-75
2023/06/18 04:55:01;;;;;;;0.90;0.90;;;;;;;22.81;100.00;99804.69;5071108;28;20207;-76
2023/06/18 04:57:28;;;;;;;0.75;0.75;;;;;;;22.90;100.00;99810.47;5070969;28;20226;-78
2023/06/18 04:59:55;;;;;;;0.70;0.70;;;;;;;23.14;100.00;99828.03;5071035;28;20203;-76
2023/06/18 05:02:22;;;;;;;0.90;0.90;;;;;;;23.70;100.00;99843.38;5072480;28;20225;-82
2023/06/18 05:04:49;;;;;;;2.28;1.50;;;;;;;23.74;100.00;99844.97;5071357;28;20202;-76
2023/06/18 05:07:17;;;;;;;0.70;0.70;;;;;;;23.46;100.00;99850.56;5073560;28;20245;-77
2023/06/18 05:09:44;;;;;;;0.60;0.60;;;;;;;22.96;100.00;99847.28;5075213;28;20222;-78
2023/06/18 05:12:12;;;;;;;0.70;0.70;;;;;;;23.07;100.00;99847.72;5075863;28;20207;-77
2023/06/18 05:14:39;;;;;;;0.60;0.60;;;;;;;23.28;100.00;99855.69;5075015;28;20201;-77
2023/06/18 05:17:06;;;;;;;0.70;0.70;;;;;;;23.53;100.00;99861.75;5074740;28;20227;-76
2023/06/18 05:19:33;;;;;;;1.38;1.38;;;;;;;23.28;100.00;99853.06;5072094;28;20211;-74
2023/06/18 05:22:00;;;;;;;0.80;0.80;;;;;;;23.19;100.00;99812.81;5071843;28;20202;-75
2023/06/18 05:24:26;;;;;;;0.80;0.80;;;;;;;23.07;100.00;99837.13;5071346;28;20616;-75
2023/06/18 05:26:53;;;;;;;0.70;0.70;;;;;;;22.97;100.00;99843.69;5074652;28;20202;-75
2023/06/18 05:29:21;;;;;;;0.70;0.70;;;;;;;23.08;100.00;99833.53;5072597;28;20203;-77
2023/06/18 05:31:48;;;;;;;0.90;0.90;;;;;;;23.10;100.00;99829.06;5071869;28;20653;-78
2023/06/18 05:34:15;;;;;;;0.85;0.85;;;;;;;23.25;100.00;99824.09;5074214;28;20252;-78
2023/06/18 05:36:42;;;;;;;0.60;0.60;;;;;;;23.47;100.00;99824.97;5074470;28;20222;-78
2023/06/18 05:39:09;;;;;;;0.88;0.88;;;;;;;23.76;100.00;99840.44;5074362;28;20199;-79
2023/06/18 05:41:35;;;;;;;0.70;0.70;;;;;;;24.19;100.00;99856.25;5073796;28;20568;-77
2023/06/18 05:44:02;;;;;;;0.80;0.80;;;;;;;24.27;100.00;99866.50;5070805;28;20658;-78
2023/06/18 05:46:30;;;;;;;1.05;1.05;;;;;;;24.64;100.00;99861.28;5070848;28;20207;-77
2023/06/18 05:48:57;;;;;;;0.70;0.70;;;;;;;24.58;100.00;99797.03;5068758;28;20207;-78
2023/06/18 05:51:24;;;;;;;0.80;0.80;;;;;;;24.99;100.00;99867.63;5074009;28;20658;-75
2023/06/18 05:53:51;;;;;;;1.08;1.08;;;;;;;25.31;100.00;99867.84;5074088;28;20275;-79
2023/06/18 05:56:17;;;;;;;0.80;0.80;;;;;;;25.39;100.00;99876.31;5073504;28;20214;-79
2023/06/18 05:58:45;;;;;;;0.90;0.90;;;;;;;25.90;100.00;99884.34;5073343;28;20198;-77
2023/06/18 06:01:11;;;;;;;0.70;0.70;;;;;;;25.93;100.00;99884.22;5038710;28;20384;-78
2023/06/18 06:03:39;;;;;;;0.90;0.90;;;;;;;25.84;100.00;99890.00;5068057;28;20207;-76
2023/06/18 06:06:06;;;;;;;1.02;1.00;;;;;;;25.59;100.00;99884.19;5066254;28;20625;-77
2023/06/18 06:08:33;;;;;;;0.75;0.75;;;;;;;25.45;100.00;99874.22;5066791;28;20207;-75
2023/06/18 06:11:01;;;;;;;0.82;0.82;;;;;;;25.70;100.00;99896.94;5055602;28;20290;-82
2023/06/18 06:13:28;;;;;;;0.88;0.88;;;;;;;26.03;100.00;99896.09;5056970;28;20233;-76
2023/06/18 06:15:54;;;;;;;1.10;1.10;;;;;;;26.36;100.00;99898.81;5028013;28;20212;-76
2023/06/18 06:18:21;;;;;;;0.77;0.77;;;;;;;26.05;100.00;99899.53;5066972;28;20231;-75
2023/06/18 06:20:49;;;;;;;1.00;1.00;;;;;;;26.10;100.00;99902.81;5052310;28;20221;-78
2023/06/18 06:23:16;;;;;;;0.82;0.82;;;;;;;25.54;100.00;99887.06;5073283;28;20214;-75
2023/06/18 06:25:43;;;;;;;0.80;0.80;;;;;;;25.42;100.00;99894.75;5073452;28;20211;-76
2023/06/18 06:28:10;;;;;;;1.35;1.25;;;;;;;26.06;100.00;99898.59;5040538;28;20207;-81
2023/06/18 06:30:36;;;;;;;0.80;0.80;;;;;;;26.17;100.00;99897.19;5062844;28;20242;-75
2023/06/18 06:33:04;;;;;;;0.90;0.90;;;;;;;26.31;100.00;99906.19;5065244;28;20576;-76
2023/06/18 06:35:31;;;;;;;0.88;0.88;;;;;;;26.18;100.00;99904.25;5057997;28;20731;-75
2023/06/18 06:37:59;;;;;;;0.80;0.80;;;;;;;26.14;100.00;99907.03;5062711;28;20600;-75
2023/06/18 06:40:26;;;;;;;2.40;2.17;;;;;;;26.01;100.00;99907.72;5072806;28;20218;-76
2023/06/18 06:42:53;;;;;;;0.95;0.95;;;;;;;25.55;100.00;99906.50;5072555;28;20584;-76
2023/06/18 06:45:19;;;;;;;0.90;0.90;;;;;;;25.88;100.00;99912.81;5072946;28;20693;-75
2023/06/18 06:47:48;;;;;;;0.82;0.82;;;;;;;26.10;100.00;99908.13;5065838;28;20265;-78
2023/06/18 06:50:15;;;;;;;0.75;0.75;;;;;;;25.62;100.00;99915.91;5066049;28;20256;-77
2023/06/18 06:52:41;;;;;;;0.75;0.75;;;;;;;25.68;100.00;99912.97;5057560;28;20269;-78
2023/06/18 06:55:10;;;;;;;0.80;0.80;;;;;;;26.08;100.00;99915.31;5057858;28;20268;-77
2023/06/18 06:57:36;;;;;;;1.17;1.17;;;;;;;26.47;100.00;99915.06;5061940;28;20619;-73
2023/06/18 07:00:07;;;;;;;1.30;1.30;;;;;;;26.62;100.00;99908.94;5061049;28;20269;-73
2023/06/18 07:02:34;;;;;;;1.00;1.00;;;;;;;26.29;100.00;99917.84;5035442;28;20192;-78
2023/06/18 07:05:01;;;;;;;1.45;1.45;;;;;;;26.28;100.00;99897.50;5059087;28;20736;-78
2023/06/18 07:07:27;;;;;;;0.70;0.70;;;;;;;25.93;100.00;99913.44;5049863;28;20269;-76
2023/06/18 07:09:55;;;;;;;0.80;0.80;;;;;;;25.72;100.00;99903.88;5067488;28;20203;-73
2023/06/18 07:12:23;;;;;;;0.90;0.90;;;;;;;26.02;100.00;99904.13;5055826;28;20280;-74
2023/06/18 07:14:50;;;;;;;1.30;1.30;;;;;;;25.39;100.00;99916.13;5068804;28;20213;-72
2023/06/18 07:17:16;;;;;;;0.70;0.70;;;;;;;25.21;100.00;99915.22;5052434;28;20306;-74
2023/06/18 07:19:43;;;;;;;1.08;1.08;;;;;;;25.54;100.00;99918.09;5064817;28;20194;-76
2023/06/18 07:22:10;;;;;;;0.90;0.90;;;;;;;25.43;100.00;99897.34;5062034;28;20271;-75
2023/06/18 07:24:37;;;;;;;0.80;0.80;;;;;;;26.03;100.00;99920.03;5067133;28;20640;-75
2023/06/18 07:27:04;;;;;;;0.60;0.60;;;;;;;26.37;100.00;99918.28;5061259;28;20211;-76
2023/06/18 07:29:32;;;;;;;1.38;1.38;;;;;;;26.43;100.00;99928.63;5065049;28;20256;-77
2023/06/18 07:31:59;;;;;;;0.70;0.70;;;;;;;26.38;100.00;99923.53;5065146;28;20227;-76
2023/06/18 07:34:25;;;;;;;0.88;0.88;;;;;;;26.58;100.00;99920.69;5063748;28;20202;-76
2023/06/18 07:36:52;;;;;;;0.80;0.80;;;;;;;26.40;100.00;99923.44;5053132;28;20265;-76
2023/06/18 07:39:19;;;;;;;0.55;0.55;;;;;;;25.98;100.00;99924.69;5067556;28;20579;-76
2023/06/18 07:41:47;;;;;;;0.70;0.70;;;;;;;25.43;100.00;99923.03;5071922;28;20199;-76
2023/06/18 07:44:14;;;;;;;0.70;0.70;;;;;;;25.64;100.00;99917.56;5071548;28;20191;-76
2023/06/18 07:46:43;;;;;;;0.80;0.80;;;;;;;26.19;100.00;99921.91;5071682;28;20195;-78
2023/06/18 07:49:10;;;;;;;0.80;0.80;;;;;;;26.17;100.00;99924.63;5071744;28;20210;-77
2023/06/18 07:51:37;;;;;;;0.80;0.80;;;;;;;26.43;100.00;99923.31;5072013;28;20202;-79
2023/06/18 07:54:04;;;;;;;1.17;1.17;;;;;;;26.58;100.00;99925.13;5036922;28;20591;-80
2023/06/18 07:56:31;;;;;;;0.70;0.70;;;;;;;26.37;100.00;99926.25;5071544;28;20191;-77
2023/06/18 07:58:58;;;;;;;0.60;0.60;;;;;;;26.03;100.00;99925.34;5071083;28;20709;-76
2023/06/18 08:01:24;;;;;;;0.70;0.70;;;;;;;25.71;100.00;99931.41;5051312;28;20211;-76
2023/06/18 08:03:53;;;;;;;1.02;1.02;;;;;;;25.76;100.00;99905.44;5051307;28;20288;-77
2023/06/18 08:06:19;;;;;;;0.80;0.80;;;;;;;26.01;100.00;99924.53;5070408;28;20187;-83
2023/06/18 08:08:48;;;;;;;0.88;0.88;;;;;;;25.79;100.00;99931.03;5071003;28;20280;-77
2023/06/18 08:11:15;;;;;;;0.65;0.65;;;;;;;25.69;100.00;99927.06;5061985;28;20294;-75
2023/06/18 08:13:41;;;;;;;1.25;1.25;;;;;;;25.90;100.00;99926.88;5070789;28;20222;-76
2023/06/18 08:16:08;;;;;;;0.60;0.60;;;;;;;25.91;100.00;99933.91;5070252;28;20639;-77
2023/06/18 08:18:35;;;;;;;0.70;0.70;;;;;;;25.94;100.00;99938.19;5070593;28;20214;-76
2023/06/18 08:21:03;;;;;;;0.90;0.90;;;;;;;25.99;100.00;99915.78;5070565;28;20227;-76
2023/06/18 08:23:30;;;;;;;0.70;0.70;;;;;;;25.63;100.00;99914.97;5070424;28;20206;-76
2023/06/18 08:25:57;;;;;;;0.80;0.80;;;;;;;25.84;100.00;99929.84;5070711;28;20195;-76
2023/06/18 08:28:24;;;;;;;0.70;0.70;;;;;;;25.99;100.00;99926.41;5070780;28;20626;-76
2023/06/18 08:30:51;;;;;;;1.00;1.00;;;;;;;25.89;100.00;99925.16;5068302;28;20238;-75
2023/06/18 08:33:17;;;;;;;0.75;0.75;;;;;;;25.98;100.00;99923.81;5065154;28;20191;-76
2023/06/18 08:35:44;;;;;;;0.75;0.75;;;;;;;26.37;100.00;99928.91;5060749;28;20198;-77
2023/06/18 08:38:12;;;;;;;0.90;0.90;;;;;;;26.79;100.00;99929.31;5064322;28;20690;-77
2023/06/18 08:40:50;;;;;;;0.93;0.93;;;;;;;27.01;100.00;99937.88;5063186;28;20199;-83
2023/06/18 08:43:21;;;;;;;0.80;0.80;;;;;;;26.88;100.00;99944.81;5061678;28;20199;-76
2023/06/18 08:45:51;;;;;;;0.90;0.90;;;;;;;26.90;100.00;99940.28;5067741;28;20649;-80
2023/06/18 08:48:21;;;;;;;0.70;0.70;;;;;;;27.41;100.00;99938.34;5069920;28;20210;-77
2023/06/18 08:50:50;;;;;;;0.70;0.70;;;;;;;27.56;97.56;99950.81;5067201;28;20200;-76
2023/06/18 08:53:26;;;;;;;1.00;1.00;;;;;;;27.80;95.24;99957.41;5048504;28;20692;-76
2023/06/18 08:55:53;;;;;;;0.70;0.70;;;;;;;27.22;98.99;99927.00;5070619;28;20213;-75
2023/06/18 08:58:25;;;;;;;0.80;0.80;;;;;;;27.52;99.58;99954.59;5034584;28;20257;-75
2023/06/18 09:00:53;;;;;;;0.75;0.75;;;;;;;27.69;100.00;99942.97;5026100;28;20203;-76
2023/06/18 09:03:21;;;;;;;0.80;0.80;;;;;;;28.18;96.78;99943.69;5068664;28;20198;-78
2023/06/18 09:05:48;;;;;;;0.80;0.80;;;;;;;28.25;100.00;99939.72;5057029;28;20206;-77
2023/06/18 09:08:15;;;;;;;0.73;0.73;;;;;;;28.07;94.26;99945.16;5057375;28;20693;-79
2023/06/18 09:10:44;;;;;;;0.75;0.75;;;;;;;28.05;96.12;99952.38;5065995;28;20210;-79
2023/06/18 09:13:10;;;;;;;0.80;0.80;;;;;;;28.07;98.19;99949.66;5070032;28;20203;-75
2023/06/18 09:15:37;;;;;;;0.73;0.73;;;;;;;28.65;94.58;99944.31;5067991;28;20260;-75
2023/06/18 09:18:05;;;;;;;0.70;0.70;;;;;;;28.71;96.08;99944.00;5069967;28;20230;-76
2023/06/18 09:20:36;;;;;;;0.63;0.63;;;;;;;28.44;88.40;99942.97;5064096;28;20230;-74
2023/06/18 09:23:08;;;;;;;0.88;0.88;;;;;;;28.43;91.61;99957.28;5069629;28;20199;-74
2023/06/18 09:25:35;;;;;;;0.63;0.63;;;;;;;28.28;89.80;99934.19;5070216;28;20601;-75
2023/06/18 09:28:04;;;;;;;0.85;0.85;;;;;;;28.72;86.83;99947.50;5050086;28;20289;-73
2023/06/18 09:30:31;;;;;;;1.13;1.13;;;;;;;28.34;89.54;99953.34;5059794;28;20223;-74
2023/06/18 09:32:59;;;;;;;0.70;0.70;;;;;;;28.54;89.09;99952.13;5055641;28;20211;-77
2023/06/18 09:35:27;;;;;;;0.60;0.60;;;;;;;29.15;88.51;99956.34;5062206;28;20194;-78
2023/06/18 09:37:54;;;;;;;0.98;0.98;;;;;;;28.93;84.80;99952.38;5055214;28;20313;-75
2023/06/18 09:40:22;;;;;;;0.60;0.60;;;;;;;29.07;83.22;99948.00;5061534;28;20190;-74
2023/06/18 09:42:50;;;;;;;0.90;0.90;;;;;;;29.59;80.99;99945.53;5052357;28;20207;-75
2023/06/18 09:45:20;;;;;;;0.70;0.70;;;;;;;29.31;81.05;99943.78;5056134;28;20627;-74
2023/06/18 09:47:48;;;;;;;0.70;0.70;;;;;;;29.61;82.34;99944.44;5054450;28;20230;-77
2023/06/18 09:50:15;;;;;;;0.70;0.70;;;;;;;29.08;84.48;99939.00;5054184;28;20668;-78
2023/06/18 09:52:43;;;;;;;0.75;0.75;;;;;;;29.27;84.26;99944.94;5065844;28;20207;-74
2023/06/18 09:55:27;;;;;;;1.52;1.50;;;;;;;29.82;80.95;99931.50;5042534;28;20258;-72
2023/06/18 09:57:54;;;;;;;1.23;1.13;;;;;;;29.46;81.97;99934.78;5058551;28;20302;-73
2023/06/18 10:00:23;;;;;;;0.70;0.70;;;;;;;29.49;81.71;99948.81;5066810;28;20598;-74
2023/06/18 10:02:50;;;;;;;0.80;0.80;;;;;;;28.85;84.17;99941.34;5063236;28;20195;-73
2023/06/18 10:05:17;;;;;;;0.90;0.90;;;;;;;28.72;87.29;99936.81;5064374;28;20220;-75
2023/06/18 10:07:44;;;;;;;0.60;0.60;;;;;;;28.61;90.17;99910.78;5065706;28;20264;-75
2023/06/18 10:10:13;;;;;;;0.70;0.70;;;;;;;29.16;85.66;99936.72;5061774;28;20256;-76
2023/06/18 10:12:42;;;;;;;0.70;0.70;;;;;;;28.87;87.34;99936.75;5073914;28;20256;-75
2023/06/18 10:15:12;;;;;;;0.80;0.80;;;;;;;28.88;83.24;99917.09;5038231;28;20209;-77
2023/06/18 10:17:45;;;;;;;0.90;0.90;;;;;;;28.57;82.21;99934.13;5055242;28;20286;-75
2023/06/18 10:20:15;;;;;;;0.70;0.70;;;;;;;28.50;86.96;99929.28;5072065;28;20206;-74
2023/06/18 10:22:46;;;;;;;0.70;0.70;;;;;;;28.72;86.20;99932.34;5073119;28;20194;-73
2023/06/18 10:25:13;;;;;;;0.70;0.70;;;;;;;28.90;88.69;99931.19;5072655;28;20203;-73
2023/06/18 10:27:40;;;;;;;0.73;0.73;;;;;;;29.17;83.66;99923.28;5053007;28;20610;-72
2023/06/18 10:30:08;;;;;;;0.95;0.95;;;;;;;28.92;85.46;99921.31;5072009;28;20678;-72
2023/06/18 10:32:37;;;;;;;0.60;0.60;;;;;;;28.94;83.11;99922.06;5069708;28;20214;-72
2023/06/18 10:35:09;;;;;;;0.73;0.73;;;;;;;29.52;79.46;99913.88;5057602;28;20203;-73
2023/06/18 10:37:37;;;;;;;0.70;0.70;;;;;;;29.53;82.08;99909.38;5023503;28;20291;-73
2023/06/18 10:40:04;;;;;;;0.70;0.70;;;;;;;29.55;80.23;99904.78;5055545;28;20199;-73
2023/06/18 10:42:32;;;;;;;0.65;0.65;;;;;;;29.78;78.85;99901.44;5066405;28;20669;-72
2023/06/18 10:45:09;;;;;;;0.70;0.70;;;;;;;29.10;78.36;99902.41;5071705;28;20230;-72
2023/06/18 10:47:36;;;;;;;0.70;0.70;;;;;;;29.04;82.42;99899.16;5066553;28;20245;-73
2023/06/18 10:50:18;;;;;;;0.73;0.73;;;;;;;29.33;82.26;99875.06;5072232;28;20207;-73
2023/06/18 10:52:48;;;;;;;0.70;0.70;;;;;;;29.45;78.90;99863.59;5072922;28;20210;-73
2023/06/18 10:55:27;;;;;;;0.60;0.60;;;;;;;29.32;82.98;99884.06;5059430;28;20227;-73
2023/06/18 10:58:00;;;;;;;0.60;0.60;;;;;;;29.68;76.14;99886.13;5072449;28;20213;-74
2023/06/18 11:00:34;;;;;;;0.60;0.60;;;;;;;29.63;78.55;99883.75;5071520;28;20214;-74
2023/06/18 11:03:03;;;;;;;0.70;0.70;;;;;;;29.67;80.60;99857.69;5072022;28;20707;-74
2023/06/18 11:05:46;;;;;;;0.70;0.70;;;;;;;29.88;75.01;99867.81;5071431;28;20222;-73
2023/06/18 11:08:14;;;;;;;0.70;0.70;;;;;;;29.41;78.90;99880.78;5072175;28;20291;-72
2023/06/18 11:10:45;;;;;;;2.35;2.25;;;;;;;29.43;80.64;99862.84;5071988;28;20256;-73
2023/06/18 11:13:12;;;;;;;0.90;0.90;;;;;;;29.71;81.60;99881.44;5033925;28;20693;-73
2023/06/18 11:15:53;;;;;;;0.73;0.73;;;;;;;29.77;79.75;99881.00;5071769;28;20195;-73
2023/06/18 11:18:21;;;;;;;0.60;0.60;;;;;;;29.56;80.44;99877.09;5071767;28;20227;-73
2023/06/18 11:20:49;;;;;;;0.70;0.70;;;;;;;29.90;77.11;99873.91;5033642;28;20234;-73
2023/06/18 11:23:17;;;;;;;0.60;0.60;;;;;;;29.72;79.42;99843.03;5065833;28;20213;-72
2023/06/18 11:25:44;;;;;;;0.60;0.60;;;;;;;30.11;78.52;99882.28;5071961;28;20263;-75
2023/06/18 11:28:13;;;;;;;0.70;0.70;;;;;;;29.97;77.21;99855.63;5072108;28;20210;-74
2023/06/18 11:30:40;;;;;;;0.60;0.60;;;;;;;30.29;74.06;99853.38;5071343;28;20689;-74